Alpine, Texas
Current Conditions -  °F | °C
As of 1:35 AM on Monday 22 Dec 2014 (Local Time) from KE38 Reporting Station
Clear Clear  
Wind Chill: 56°   Ceiling: Unl
Heat Index: 56°   Visibility: 10mi
Dew Point: 24°   Wind: 9mph
Humidity: 29%   Direction: 230°SW
Pressure: 29.93"   Gusts: 17mph
Location:  30.36°N, 103.66°W
Report Text: KE38 220735Z AUTO 23008G15KT 10SM CLR 13/M04 A2993 RMK AO2 T01341043
Loading
Personal Weather Stations






























Interactive Weather Map New forecast layout! Learn more

10-Day Weather Forecast

Advertisements
Track Severe Weather on mobile